Terminal Aerodrome Forecast
Issued by NWS

Home | Current Version | Previous Version | Text Only | Print | Product List | Glossary On
Versions: 1 2 3 4 5 6 7 8 9 10 11 12 13 14 15 16 17 18 19 20 21 22
000
FTUS43 KGRR 302142 AAB
TAFMKG
TAF AMD
KMKG 302142Z 3022/0118 05012G18KT P6SM OVC015
     FM302300 05012G18KT P6SM -RA OVC010
      TEMPO 3023/0101 3SM -RA BR
     FM010100 05010G17KT 4SM -RA BR OVC007
     FM010500 06011G17KT P6SM OVC007
     FM010600 06010KT P6SM OVC007
     FM011000 06008KT 4SM -RA BR OVC007=

USA.gov is the U.S. government's official web portal to all federal, state and local government web resources and services.